sensor_id;sensor_type;location;lat;lon;timestamp;pressure;altitude;pressure_sealevel;temperature;humidity
5777;BME280;2914;42.668;23.346;2022-07-29T00:01:42;94692.77;;;21.38;93.41
5777;BME280;2914;42.668;23.346;2022-07-29T00:04:12;94696.70;;;21.48;92.58
5777;BME280;2914;42.668;23.346;2022-07-29T00:06:41;94691.58;;;21.54;92.14
5777;BME280;2914;42.668;23.346;2022-07-29T00:09:10;94692.07;;;21.73;91.18
5777;BME280;2914;42.668;23.346;2022-07-29T00:11:39;94706.08;;;21.95;90.14
5777;BME280;2914;42.668;23.346;2022-07-29T00:14:09;94703.48;;;22.11;89.07
5777;BME280;2914;42.668;23.346;2022-07-29T00:16:38;94709.31;;;22.31;88.02
5777;BME280;2914;42.668;23.346;2022-07-29T00:19:07;94708.73;;;22.22;87.46
5777;BME280;2914;42.668;23.346;2022-07-29T00:21:36;94714.74;;;22.17;87.37
5777;BME280;2914;42.668;23.346;2022-07-29T00:24:06;94716.23;;;21.73;89.18
5777;BME280;2914;42.668;23.346;2022-07-29T00:29:19;94709.73;;;21.72;90.06
5777;BME280;2914;42.668;23.346;2022-07-29T00:31:48;94709.30;;;21.88;89.09
5777;BME280;2914;42.668;23.346;2022-07-29T00:34:17;94706.40;;;21.96;88.82
5777;BME280;2914;42.668;23.346;2022-07-29T00:37:04;94695.51;;;22.20;87.66
5777;BME280;2914;42.668;23.346;2022-07-29T00:39:33;94694.97;;;22.28;86.97
5777;BME280;2914;42.668;23.346;2022-07-29T00:42:04;94703.73;;;22.39;86.37
5777;BME280;2914;42.668;23.346;2022-07-29T00:44:38;94706.06;;;22.51;85.62
5777;BME280;2914;42.668;23.346;2022-07-29T00:47:07;94700.21;;;22.68;84.95
5777;BME280;2914;42.668;23.346;2022-07-29T00:49:37;94703.59;;;22.79;85.27
5777;BME280;2914;42.668;23.346;2022-07-29T00:52:08;94710.54;;;22.94;85.06
5777;BME280;2914;42.668;23.346;2022-07-29T00:54:39;94718.05;;;23.01;85.42
5777;BME280;2914;42.668;23.346;2022-07-29T00:57:09;94715.20;;;22.96;86.47
5777;BME280;2914;42.668;23.346;2022-07-29T00:59:38;94712.29;;;22.97;86.61
5777;BME280;2914;42.668;23.346;2022-07-29T01:02:07;94717.14;;;22.98;86.00
5777;BME280;2914;42.668;23.346;2022-07-29T01:04:36;94713.76;;;22.93;85.70
5777;BME280;2914;42.668;23.346;2022-07-29T01:07:05;94713.23;;;22.94;85.76
5777;BME280;2914;42.668;23.346;2022-07-29T01:09:36;94709.00;;;22.88;85.29
5777;BME280;2914;42.668;23.346;2022-07-29T01:12:09;94711.44;;;22.97;85.12
5777;BME280;2914;42.668;23.346;2022-07-29T01:14:41;94706.38;;;22.98;85.86
5777;BME280;2914;42.668;23.346;2022-07-29T01:17:14;94703.75;;;22.84;86.37
5777;BME280;2914;42.668;23.346;2022-07-29T01:19:51;94702.00;;;22.87;86.47
5777;BME280;2914;42.668;23.346;2022-07-29T01:25:23;94701.13;;;22.94;86.55
5777;BME280;2914;42.668;23.346;2022-07-29T01:30:43;94692.44;;;22.76;87.43
5777;BME280;2914;42.668;23.346;2022-07-29T01:33:15;94697.40;;;22.72;87.42
5777;BME280;2914;42.668;23.346;2022-07-29T01:36:07;94691.03;;;22.44;89.02
5777;BME280;2914;42.668;23.346;2022-07-29T01:38:39;94690.83;;;22.39;89.80
5777;BME280;2914;42.668;23.346;2022-07-29T01:41:12;94682.08;;;22.34;90.03
5777;BME280;2914;42.668;23.346;2022-07-29T01:46:24;94675.88;;;22.56;89.08
5777;BME280;2914;42.668;23.346;2022-07-29T01:48:56;94681.11;;;22.38;89.45
5777;BME280;2914;42.668;23.346;2022-07-29T01:51:29;94683.11;;;22.19;90.87
5777;BME280;2914;42.668;23.346;2022-07-29T01:54:02;94678.05;;;22.34;90.27
5777;BME280;2914;42.668;23.346;2022-07-29T01:56:33;94680.89;;;22.39;89.89
5777;BME280;2914;42.668;23.346;2022-07-29T01:59:06;94679.63;;;22.48;89.76
5777;BME280;2914;42.668;23.346;2022-07-29T02:01:37;94679.29;;;22.54;89.65
5777;BME280;2914;42.668;23.346;2022-07-29T02:04:09;94673.22;;;22.49;89.88
5777;BME280;2914;42.668;23.346;2022-07-29T02:06:40;94675.48;;;22.52;89.47
5777;BME280;2914;42.668;23.346;2022-07-29T02:09:13;94666.96;;;22.40;90.58
5777;BME280;2914;42.668;23.346;2022-07-29T02:11:47;94660.22;;;22.46;90.21
5777;BME280;2914;42.668;23.346;2022-07-29T02:14:17;94667.51;;;22.55;89.55
5777;BME280;2914;42.668;23.346;2022-07-29T02:16:48;94665.30;;;22.39;90.56
5777;BME280;2914;42.668;23.346;2022-07-29T02:19:21;94662.08;;;22.03;92.66
5777;BME280;2914;42.668;23.346;2022-07-29T02:21:52;94652.67;;;22.03;92.65
5777;BME280;2914;42.668;23.346;2022-07-29T02:24:23;94658.80;;;22.01;93.04
5777;BME280;2914;42.668;23.346;2022-07-29T02:29:33;94656.64;;;22.30;91.38
5777;BME280;2914;42.668;23.346;2022-07-29T02:34:42;94660.73;;;22.32;90.83
5777;BME280;2914;42.668;23.346;2022-07-29T02:37:12;94659.95;;;22.18;91.38
5777;BME280;2914;42.668;23.346;2022-07-29T02:39:43;94643.09;;;21.91;92.37
5777;BME280;2914;42.668;23.346;2022-07-29T02:42:14;94641.27;;;22.14;91.31
5777;BME280;2914;42.668;23.346;2022-07-29T02:44:44;94642.40;;;22.16;91.51
5777;BME280;2914;42.668;23.346;2022-07-29T02:47:17;94635.84;;;22.05;92.16
5777;BME280;2914;42.668;23.346;2022-07-29T02:49:52;94633.44;;;21.77;93.60
5777;BME280;2914;42.668;23.346;2022-07-29T02:52:26;94632.74;;;21.59;94.40
5777;BME280;2914;42.668;23.346;2022-07-29T02:54:58;94630.27;;;21.64;93.15
5777;BME280;2914;42.668;23.346;2022-07-29T02:57:33;94641.51;;;21.43;94.21
5777;BME280;2914;42.668;23.346;2022-07-29T03:00:07;94643.23;;;21.33;94.41
5777;BME280;2914;42.668;23.346;2022-07-29T03:02:39;94637.06;;;21.46;93.73
5777;BME280;2914;42.668;23.346;2022-07-29T03:05:14;94637.25;;;21.72;92.78
5777;BME280;2914;42.668;23.346;2022-07-29T03:07:44;94643.25;;;21.80;92.30
5777;BME280;2914;42.668;23.346;2022-07-29T03:10:14;94636.72;;;21.79;91.80
5777;BME280;2914;42.668;23.346;2022-07-29T03:12:44;94635.41;;;21.72;92.05
5777;BME280;2914;42.668;23.346;2022-07-29T03:15:14;94638.79;;;21.83;91.54
5777;BME280;2914;42.668;23.346;2022-07-29T03:17:44;94642.49;;;21.89;90.99
5777;BME280;2914;42.668;23.346;2022-07-29T03:20:14;94651.34;;;21.96;90.41
5777;BME280;2914;42.668;23.346;2022-07-29T03:22:44;94649.74;;;21.82;91.08
5777;BME280;2914;42.668;23.346;2022-07-29T03:25:16;94639.02;;;21.75;91.42
5777;BME280;2914;42.668;23.346;2022-07-29T03:30:27;94640.95;;;21.84;92.75
5777;BME280;2914;42.668;23.346;2022-07-29T03:32:58;94648.83;;;21.72;93.36
5777;BME280;2914;42.668;23.346;2022-07-29T03:35:27;94644.97;;;21.84;93.01
5777;BME280;2914;42.668;23.346;2022-07-29T03:37:58;94644.84;;;21.95;92.62
5777;BME280;2914;42.668;23.346;2022-07-29T03:40:30;94648.22;;;22.06;91.69
5777;BME280;2914;42.668;23.346;2022-07-29T03:43:01;94646.27;;;22.11;91.39
5777;BME280;2914;42.668;23.346;2022-07-29T03:48:12;94650.66;;;22.21;91.60
5777;BME280;2914;42.668;23.346;2022-07-29T03:50:42;94658.70;;;22.28;90.91
5777;BME280;2914;42.668;23.346;2022-07-29T03:53:11;94659.01;;;22.29;91.04
5777;BME280;2914;42.668;23.346;2022-07-29T03:55:44;94660.36;;;22.35;90.49
5777;BME280;2914;42.668;23.346;2022-07-29T03:58:14;94663.96;;;22.39;90.58
5777;BME280;2914;42.668;23.346;2022-07-29T04:00:44;94660.95;;;22.38;90.29
5777;BME280;2914;42.668;23.346;2022-07-29T04:03:14;94663.52;;;22.42;89.89
5777;BME280;2914;42.668;23.346;2022-07-29T04:05:43;94672.31;;;22.46;89.79
5777;BME280;2914;42.668;23.346;2022-07-29T04:08:12;94668.69;;;22.43;90.26
5777;BME280;2914;42.668;23.346;2022-07-29T04:10:41;94672.12;;;22.41;90.75
5777;BME280;2914;42.668;23.346;2022-07-29T04:13:10;94674.23;;;22.55;89.55
5777;BME280;2914;42.668;23.346;2022-07-29T04:15:39;94671.80;;;21.97;92.67
5777;BME280;2914;42.668;23.346;2022-07-29T04:18:08;94668.31;;;22.26;91.25
5777;BME280;2914;42.668;23.346;2022-07-29T04:20:38;94668.40;;;22.42;90.34
5777;BME280;2914;42.668;23.346;2022-07-29T04:23:07;94667.78;;;21.91;92.79
5777;BME280;2914;42.668;23.346;2022-07-29T04:25:38;94660.17;;;21.74;94.74
5777;BME280;2914;42.668;23.346;2022-07-29T04:30:47;94655.33;;;22.16;92.44
5777;BME280;2914;42.668;23.346;2022-07-29T04:33:16;94657.75;;;21.95;93.65
5777;BME280;2914;42.668;23.346;2022-07-29T04:35:45;94651.42;;;22.12;93.42
5777;BME280;2914;42.668;23.346;2022-07-29T04:38:14;94659.16;;;22.47;92.91
5777;BME280;2914;42.668;23.346;2022-07-29T04:40:44;94670.92;;;22.76;90.77
5777;BME280;2914;42.668;23.346;2022-07-29T04:43:13;94674.63;;;22.97;89.51
5777;BME280;2914;42.668;23.346;2022-07-29T04:45:44;94670.07;;;23.20;88.32
5777;BME280;2914;42.668;23.346;2022-07-29T04:48:13;94677.88;;;23.29;86.57
5777;BME280;2914;42.668;23.346;2022-07-29T04:50:43;94676.89;;;23.48;86.22
5777;BME280;2914;42.668;23.346;2022-07-29T04:53:13;94680.91;;;23.74;84.38
5777;BME280;2914;42.668;23.346;2022-07-29T04:55:44;94678.58;;;23.68;83.35
5777;BME280;2914;42.668;23.346;2022-07-29T04:58:14;94680.20;;;23.34;84.72
5777;BME280;2914;42.668;23.346;2022-07-29T05:00:43;94685.64;;;23.53;86.08
5777;BME280;2914;42.668;23.346;2022-07-29T05:03:13;94690.03;;;23.72;83.98
5777;BME280;2914;42.668;23.346;2022-07-29T05:05:42;94687.44;;;23.50;83.55
5777;BME280;2914;42.668;23.346;2022-07-29T05:08:11;94690.38;;;23.58;83.38
5777;BME280;2914;42.668;23.346;2022-07-29T05:10:41;94687.34;;;23.47;83.03
5777;BME280;2914;42.668;23.346;2022-07-29T05:13:10;94682.59;;;23.33;84.54
5777;BME280;2914;42.668;23.346;2022-07-29T05:15:39;94692.45;;;23.30;85.08
5777;BME280;2914;42.668;23.346;2022-07-29T05:18:08;94688.95;;;23.64;83.80
5777;BME280;2914;42.668;23.346;2022-07-29T05:20:37;94695.13;;;23.71;82.36
5777;BME280;2914;42.668;23.346;2022-07-29T05:25:50;94694.11;;;23.57;82.32
5777;BME280;2914;42.668;23.346;2022-07-29T05:28:19;94705.20;;;23.67;81.81
5777;BME280;2914;42.668;23.346;2022-07-29T05:30:48;94701.95;;;23.83;81.26
5777;BME280;2914;42.668;23.346;2022-07-29T05:33:18;94697.16;;;24.11;80.59
5777;BME280;2914;42.668;23.346;2022-07-29T05:35:47;94699.11;;;24.22;79.58
5777;BME280;2914;42.668;23.346;2022-07-29T05:38:16;94686.59;;;24.00;80.09
5777;BME280;2914;42.668;23.346;2022-07-29T05:40:45;94698.02;;;24.39;79.48
5777;BME280;2914;42.668;23.346;2022-07-29T05:45:52;94691.94;;;24.16;78.26
5777;BME280;2914;42.668;23.346;2022-07-29T05:48:21;94698.43;;;24.08;78.36
5777;BME280;2914;42.668;23.346;2022-07-29T05:50:50;94696.41;;;24.22;77.37
5777;BME280;2914;42.668;23.346;2022-07-29T05:53:20;94698.45;;;24.54;77.86
5777;BME280;2914;42.668;23.346;2022-07-29T05:55:49;94706.11;;;24.48;75.34
5777;BME280;2914;42.668;23.346;2022-07-29T05:58:19;94703.80;;;24.61;75.57
5777;BME280;2914;42.668;23.346;2022-07-29T06:03:26;94713.19;;;24.98;72.59
5777;BME280;2914;42.668;23.346;2022-07-29T06:05:56;94714.63;;;25.13;70.87
5777;BME280;2914;42.668;23.346;2022-07-29T06:08:26;94711.58;;;24.69;73.04
5777;BME280;2914;42.668;23.346;2022-07-29T06:10:55;94715.78;;;24.75;72.82
5777;BME280;2914;42.668;23.346;2022-07-29T06:13:24;94717.94;;;24.75;73.50
5777;BME280;2914;42.668;23.346;2022-07-29T06:15:53;94717.72;;;25.07;71.78
5777;BME280;2914;42.668;23.346;2022-07-29T06:18:23;94722.09;;;25.38;71.42
5777;BME280;2914;42.668;23.346;2022-07-29T06:20:52;94722.16;;;25.41;70.93
5777;BME280;2914;42.668;23.346;2022-07-29T06:23:22;94723.50;;;25.32;71.68
5777;BME280;2914;42.668;23.346;2022-07-29T06:25:51;94715.92;;;25.62;70.45
5777;BME280;2914;42.668;23.346;2022-07-29T06:28:20;94722.36;;;25.82;69.30
5777;BME280;2914;42.668;23.346;2022-07-29T06:30:49;94722.66;;;25.95;68.38
5777;BME280;2914;42.668;23.346;2022-07-29T06:33:19;94713.75;;;26.06;68.03
5777;BME280;2914;42.668;23.346;2022-07-29T06:35:48;94721.58;;;26.29;67.75
5777;BME280;2914;42.668;23.346;2022-07-29T06:38:17;94718.45;;;26.34;67.05
5777;BME280;2914;42.668;23.346;2022-07-29T06:40:47;94714.16;;;26.48;67.00
5777;BME280;2914;42.668;23.346;2022-07-29T06:43:36;94711.33;;;26.69;67.38
5777;BME280;2914;42.668;23.346;2022-07-29T06:46:07;94707.66;;;26.87;66.85
5777;BME280;2914;42.668;23.346;2022-07-29T06:48:37;94711.61;;;26.82;66.50
5777;BME280;2914;42.668;23.346;2022-07-29T06:51:06;94712.37;;;26.91;66.32
5777;BME280;2914;42.668;23.346;2022-07-29T06:53:36;94700.67;;;27.03;65.41
5777;BME280;2914;42.668;23.346;2022-07-29T06:56:06;94705.63;;;26.80;66.02
5777;BME280;2914;42.668;23.346;2022-07-29T06:58:36;94708.94;;;26.96;65.66
5777;BME280;2914;42.668;23.346;2022-07-29T07:01:06;94700.78;;;27.08;65.45
5777;BME280;2914;42.668;23.346;2022-07-29T07:03:36;94709.89;;;27.19;65.63
5777;BME280;2914;42.668;23.346;2022-07-29T07:06:05;94705.70;;;27.11;64.36
5777;BME280;2914;42.668;23.346;2022-07-29T07:08:34;94700.95;;;27.18;63.93
5777;BME280;2914;42.668;23.346;2022-07-29T07:11:03;94696.70;;;27.22;63.37
5777;BME280;2914;42.668;23.346;2022-07-29T07:13:33;94691.62;;;27.26;64.22
5777;BME280;2914;42.668;23.346;2022-07-29T07:16:03;94692.66;;;27.08;65.08
5777;BME280;2914;42.668;23.346;2022-07-29T07:18:33;94699.80;;;27.14;64.15
5777;BME280;2914;42.668;23.346;2022-07-29T07:21:02;94697.09;;;27.29;62.90
5777;BME280;2914;42.668;23.346;2022-07-29T07:23:32;94698.25;;;27.33;62.20
5777;BME280;2914;42.668;23.346;2022-07-29T07:26:01;94694.09;;;27.42;61.36
5777;BME280;2914;42.668;23.346;2022-07-29T07:28:30;94696.44;;;27.36;62.21
5777;BME280;2914;42.668;23.346;2022-07-29T07:31:00;94692.17;;;27.40;61.12
5777;BME280;2914;42.668;23.346;2022-07-29T07:33:29;94693.76;;;26.81;62.05
5777;BME280;2914;42.668;23.346;2022-07-29T07:35:58;94678.87;;;26.95;62.36
5777;BME280;2914;42.668;23.346;2022-07-29T07:38:27;94690.47;;;27.22;61.86
5777;BME280;2914;42.668;23.346;2022-07-29T07:40:56;94686.46;;;27.24;60.70
5777;BME280;2914;42.668;23.346;2022-07-29T07:43:25;94692.34;;;26.78;61.51
5777;BME280;2914;42.668;23.346;2022-07-29T07:45:54;94691.67;;;26.85;62.23
5777;BME280;2914;42.668;23.346;2022-07-29T07:48:24;94700.53;;;27.09;61.69
5777;BME280;2914;42.668;23.346;2022-07-29T07:50:53;94690.52;;;27.10;61.31
5777;BME280;2914;42.668;23.346;2022-07-29T07:53:22;94689.13;;;26.93;61.99
5777;BME280;2914;42.668;23.346;2022-07-29T07:55:51;94695.24;;;27.17;62.11
5777;BME280;2914;42.668;23.346;2022-07-29T07:58:20;94690.02;;;27.13;61.35
5777;BME280;2914;42.668;23.346;2022-07-29T08:00:50;94694.80;;;27.23;60.81
5777;BME280;2914;42.668;23.346;2022-07-29T08:03:19;94696.05;;;27.32;60.87
5777;BME280;2914;42.668;23.346;2022-07-29T08:05:48;94693.63;;;27.45;59.48
5777;BME280;2914;42.668;23.346;2022-07-29T08:08:18;94684.59;;;27.56;59.65
5777;BME280;2914;42.668;23.346;2022-07-29T08:10:47;94688.20;;;27.79;58.75
5777;BME280;2914;42.668;23.346;2022-07-29T08:13:26;94689.34;;;27.83;57.99
5777;BME280;2914;42.668;23.346;2022-07-29T08:15:56;94682.47;;;27.75;56.72
5777;BME280;2914;42.668;23.346;2022-07-29T08:18:30;94681.25;;;27.52;56.37
5777;BME280;2914;42.668;23.346;2022-07-29T08:20:59;94681.63;;;27.41;56.87
5777;BME280;2914;42.668;23.346;2022-07-29T08:23:28;94684.80;;;27.52;57.24
5777;BME280;2914;42.668;23.346;2022-07-29T08:26:00;94685.55;;;27.65;56.92
5777;BME280;2914;42.668;23.346;2022-07-29T08:28:29;94658.74;;;27.66;56.94
5777;BME280;2914;42.668;23.346;2022-07-29T08:30:58;94674.98;;;27.83;56.41
5777;BME280;2914;42.668;23.346;2022-07-29T08:33:27;94674.78;;;27.87;56.27
5777;BME280;2914;42.668;23.346;2022-07-29T08:35:56;94671.81;;;28.05;55.83
5777;BME280;2914;42.668;23.346;2022-07-29T08:38:26;94679.95;;;27.88;54.77
5777;BME280;2914;42.668;23.346;2022-07-29T08:40:55;94675.42;;;27.94;54.24
5777;BME280;2914;42.668;23.346;2022-07-29T08:43:25;94671.36;;;27.94;54.65
5777;BME280;2914;42.668;23.346;2022-07-29T08:45:54;94668.03;;;28.23;53.96
5777;BME280;2914;42.668;23.346;2022-07-29T08:48:24;94670.86;;;28.34;54.97
5777;BME280;2914;42.668;23.346;2022-07-29T08:50:56;94667.83;;;28.50;54.93
5777;BME280;2914;42.668;23.346;2022-07-29T08:56:05;94660.91;;;28.61;51.31
5777;BME280;2914;42.668;23.346;2022-07-29T08:58:35;94663.34;;;28.80;50.00
5777;BME280;2914;42.668;23.346;2022-07-29T09:01:04;94663.45;;;28.26;49.45
5777;BME280;2914;42.668;23.346;2022-07-29T09:03:35;94670.21;;;28.46;49.90
5777;BME280;2914;42.668;23.346;2022-07-29T09:06:05;94662.70;;;28.53;49.51
5777;BME280;2914;42.668;23.346;2022-07-29T09:08:35;94656.97;;;28.69;49.17
5777;BME280;2914;42.668;23.346;2022-07-29T09:11:04;94656.80;;;28.56;48.62
5777;BME280;2914;42.668;23.346;2022-07-29T09:13:35;94655.61;;;28.28;49.59
5777;BME280;2914;42.668;23.346;2022-07-29T09:16:05;94652.06;;;28.27;49.13
5777;BME280;2914;42.668;23.346;2022-07-29T09:18:38;94651.00;;;28.28;49.43
5777;BME280;2914;42.668;23.346;2022-07-29T09:21:09;94657.74;;;28.06;49.74
5777;BME280;2914;42.668;23.346;2022-07-29T09:24:05;94649.23;;;28.00;51.02
5777;BME280;2914;42.668;23.346;2022-07-29T09:26:36;94655.01;;;27.89;50.46
5777;BME280;2914;42.668;23.346;2022-07-29T09:29:10;94645.94;;;27.98;49.97
5777;BME280;2914;42.668;23.346;2022-07-29T09:31:40;94653.55;;;28.18;49.94
5777;BME280;2914;42.668;23.346;2022-07-29T09:34:29;94646.38;;;28.29;49.99
5777;BME280;2914;42.668;23.346;2022-07-29T09:36:59;94647.44;;;28.25;50.45
5777;BME280;2914;42.668;23.346;2022-07-29T09:39:30;94645.61;;;28.31;50.47
5777;BME280;2914;42.668;23.346;2022-07-29T09:42:01;94644.44;;;28.46;49.93
5777;BME280;2914;42.668;23.346;2022-07-29T09:44:43;94641.22;;;28.49;49.61
5777;BME280;2914;42.668;23.346;2022-07-29T09:47:12;94640.30;;;28.41;50.13
5777;BME280;2914;42.668;23.346;2022-07-29T09:49:53;94639.38;;;28.52;49.71
5777;BME280;2914;42.668;23.346;2022-07-29T09:52:25;94641.39;;;28.40;50.04
5777;BME280;2914;42.668;23.346;2022-07-29T09:54:54;94640.73;;;28.52;50.70
5777;BME280;2914;42.668;23.346;2022-07-29T09:57:26;94639.80;;;28.64;49.47
5777;BME280;2914;42.668;23.346;2022-07-29T10:00:02;94630.99;;;28.76;49.56
5777;BME280;2914;42.668;23.346;2022-07-29T10:02:35;94625.76;;;28.69;48.54
5777;BME280;2914;42.668;23.346;2022-07-29T10:05:09;94634.45;;;28.69;49.73
5777;BME280;2914;42.668;23.346;2022-07-29T10:07:46;94625.27;;;28.53;50.31
5777;BME280;2914;42.668;23.346;2022-07-29T10:10:21;94624.23;;;28.59;50.62
5777;BME280;2914;42.668;23.346;2022-07-29T10:12:52;94621.53;;;28.37;51.18
5777;BME280;2914;42.668;23.346;2022-07-29T10:15:24;94612.33;;;28.38;50.84
5777;BME280;2914;42.668;23.346;2022-07-29T10:17:54;94607.89;;;28.51;50.82
5777;BME280;2914;42.668;23.346;2022-07-29T10:20:25;94606.83;;;28.52;50.21
5777;BME280;2914;42.668;23.346;2022-07-29T10:22:55;94607.08;;;28.53;49.33
5777;BME280;2914;42.668;23.346;2022-07-29T10:28:03;94597.48;;;28.90;49.70
5777;BME280;2914;42.668;23.346;2022-07-29T10:30:34;94606.55;;;29.01;48.47
5777;BME280;2914;42.668;23.346;2022-07-29T10:36:24;94592.02;;;29.15;45.74
5777;BME280;2914;42.668;23.346;2022-07-29T10:38:57;94592.34;;;29.23;45.99
5777;BME280;2914;42.668;23.346;2022-07-29T10:41:47;94585.14;;;29.34;46.25
5777;BME280;2914;42.668;23.346;2022-07-29T10:44:16;94583.02;;;29.41;45.28
5777;BME280;2914;42.668;23.346;2022-07-29T10:46:46;94591.67;;;29.36;45.86
5777;BME280;2914;42.668;23.346;2022-07-29T10:49:17;94583.52;;;29.36;44.77
5777;BME280;2914;42.668;23.346;2022-07-29T10:52:04;94581.73;;;29.49;44.35
5777;BME280;2914;42.668;23.346;2022-07-29T10:57:27;94567.88;;;29.51;45.63
5777;BME280;2914;42.668;23.346;2022-07-29T11:03:05;94557.88;;;29.59;44.97
5777;BME280;2914;42.668;23.346;2022-07-29T11:08:36;94564.63;;;29.54;44.74
5777;BME280;2914;42.668;23.346;2022-07-29T11:14:55;94559.24;;;29.59;44.72
5777;BME280;2914;42.668;23.346;2022-07-29T11:17:25;94563.56;;;29.55;45.08
5777;BME280;2914;42.668;23.346;2022-07-29T11:22:49;94544.05;;;29.63;44.10
5777;BME280;2914;42.668;23.346;2022-07-29T11:28:13;94545.58;;;29.86;44.19
5777;BME280;2914;42.668;23.346;2022-07-29T11:30:53;94536.00;;;29.81;44.00
5777;BME280;2914;42.668;23.346;2022-07-29T11:33:30;94540.97;;;29.89;44.13
5777;BME280;2914;42.668;23.346;2022-07-29T11:36:10;94532.17;;;29.77;43.78
5777;BME280;2914;42.668;23.346;2022-07-29T11:38:41;94548.22;;;29.76;44.58
5777;BME280;2914;42.668;23.346;2022-07-29T11:41:21;94535.19;;;29.81;44.54
5777;BME280;2914;42.668;23.346;2022-07-29T11:46:49;94530.67;;;29.94;43.66
5777;BME280;2914;42.668;23.346;2022-07-29T11:49:23;94526.88;;;29.98;44.37
5777;BME280;2914;42.668;23.346;2022-07-29T11:51:54;94530.11;;;29.92;43.65
5777;BME280;2914;42.668;23.346;2022-07-29T11:57:03;94532.91;;;30.05;42.68
5777;BME280;2914;42.668;23.346;2022-07-29T12:02:22;94514.09;;;29.95;42.99
5777;BME280;2914;42.668;23.346;2022-07-29T12:04:52;94511.11;;;29.97;43.01
5777;BME280;2914;42.668;23.346;2022-07-29T12:07:28;94524.44;;;29.99;42.73
5777;BME280;2914;42.668;23.346;2022-07-29T12:09:57;94511.16;;;30.05;42.00
5777;BME280;2914;42.668;23.346;2022-07-29T12:12:27;94512.77;;;30.01;42.09
5777;BME280;2914;42.668;23.346;2022-07-29T12:14:56;94512.52;;;30.05;41.67
5777;BME280;2914;42.668;23.346;2022-07-29T12:17:29;94511.41;;;30.06;42.29
5777;BME280;2914;42.668;23.346;2022-07-29T12:20:01;94526.69;;;30.20;42.86
5777;BME280;2914;42.668;23.346;2022-07-29T12:22:32;94515.84;;;30.27;42.47
5777;BME280;2914;42.668;23.346;2022-07-29T12:25:04;94508.81;;;30.37;43.13
5777;BME280;2914;42.668;23.346;2022-07-29T12:27:34;94510.76;;;30.44;43.72
5777;BME280;2914;42.668;23.346;2022-07-29T12:30:07;94517.03;;;30.52;43.38
5777;BME280;2914;42.668;23.346;2022-07-29T12:32:38;94514.84;;;30.44;42.65
5777;BME280;2914;42.668;23.346;2022-07-29T12:35:10;94508.06;;;30.52;42.60
5777;BME280;2914;42.668;23.346;2022-07-29T12:37:41;94512.95;;;30.50;42.19
5777;BME280;2914;42.668;23.346;2022-07-29T12:40:13;94502.03;;;30.42;41.21
5777;BME280;2914;42.668;23.346;2022-07-29T12:45:33;94504.19;;;30.40;42.19
5777;BME280;2914;42.668;23.346;2022-07-29T12:48:02;94499.34;;;30.52;42.47
5777;BME280;2914;42.668;23.346;2022-07-29T12:50:32;94503.69;;;30.48;41.31
5777;BME280;2914;42.668;23.346;2022-07-29T12:53:12;94503.43;;;30.52;41.28
5777;BME280;2914;42.668;23.346;2022-07-29T12:55:46;94503.73;;;30.58;42.00
5777;BME280;2914;42.668;23.346;2022-07-29T12:58:28;94493.09;;;30.59;41.48
5777;BME280;2914;42.668;23.346;2022-07-29T13:01:07;94486.59;;;30.66;41.51
5777;BME280;2914;42.668;23.346;2022-07-29T13:03:45;94482.22;;;30.62;41.30
5777;BME280;2914;42.668;23.346;2022-07-29T13:12:02;94483.88;;;30.68;41.13
5777;BME280;2914;42.668;23.346;2022-07-29T13:17:32;94468.09;;;30.78;41.04
5777;BME280;2914;42.668;23.346;2022-07-29T13:20:10;94470.81;;;30.75;41.51
5777;BME280;2914;42.668;23.346;2022-07-29T13:25:24;94464.02;;;30.83;41.06
5777;BME280;2914;42.668;23.346;2022-07-29T13:30:30;94466.16;;;30.60;40.95
5777;BME280;2914;42.668;23.346;2022-07-29T13:32:59;94460.19;;;30.58;41.49
5777;BME280;2914;42.668;23.346;2022-07-29T13:35:28;94450.93;;;30.67;42.02
5777;BME280;2914;42.668;23.346;2022-07-29T13:37:57;94452.84;;;30.67;40.90
5777;BME280;2914;42.668;23.346;2022-07-29T13:40:27;94453.11;;;30.60;40.79
5777;BME280;2914;42.668;23.346;2022-07-29T13:42:56;94449.02;;;30.60;41.40
5777;BME280;2914;42.668;23.346;2022-07-29T13:45:26;94440.58;;;30.59;41.31
5777;BME280;2914;42.668;23.346;2022-07-29T13:47:55;94444.39;;;30.63;41.51
5777;BME280;2914;42.668;23.346;2022-07-29T13:50:24;94437.86;;;30.59;41.42
5777;BME280;2914;42.668;23.346;2022-07-29T13:52:53;94447.64;;;30.65;41.22
5777;BME280;2914;42.668;23.346;2022-07-29T13:55:22;94445.47;;;30.59;41.54
5777;BME280;2914;42.668;23.346;2022-07-29T13:57:51;94450.66;;;30.58;40.44
5777;BME280;2914;42.668;23.346;2022-07-29T14:00:21;94444.67;;;30.61;40.75
5777;BME280;2914;42.668;23.346;2022-07-29T14:02:51;94442.77;;;30.67;41.18
5777;BME280;2914;42.668;23.346;2022-07-29T14:05:20;94449.01;;;30.65;40.83
5777;BME280;2914;42.668;23.346;2022-07-29T14:07:49;94448.75;;;30.59;39.98
5777;BME280;2914;42.668;23.346;2022-07-29T14:10:19;94450.09;;;30.56;40.66
5777;BME280;2914;42.668;23.346;2022-07-29T14:12:48;94451.20;;;30.66;40.71
5777;BME280;2914;42.668;23.346;2022-07-29T14:15:17;94447.92;;;30.61;40.57
5777;BME280;2914;42.668;23.346;2022-07-29T14:17:47;94446.55;;;30.61;40.66
5777;BME280;2914;42.668;23.346;2022-07-29T14:20:16;94443.03;;;30.63;40.85
5777;BME280;2914;42.668;23.346;2022-07-29T14:22:47;94440.84;;;30.65;40.59
5777;BME280;2914;42.668;23.346;2022-07-29T14:25:17;94441.94;;;30.72;40.81
5777;BME280;2914;42.668;23.346;2022-07-29T14:30:23;94443.31;;;30.64;40.42
5777;BME280;2914;42.668;23.346;2022-07-29T14:32:52;94437.56;;;30.53;40.62
5777;BME280;2914;42.668;23.346;2022-07-29T14:35:21;94452.00;;;30.51;40.59
5777;BME280;2914;42.668;23.346;2022-07-29T14:37:51;94442.46;;;30.45;40.84
5777;BME280;2914;42.668;23.346;2022-07-29T14:40:20;94440.58;;;30.46;40.99
5777;BME280;2914;42.668;23.346;2022-07-29T14:42:49;94433.50;;;30.48;41.00
5777;BME280;2914;42.668;23.346;2022-07-29T14:45:18;94434.86;;;30.45;40.70
5777;BME280;2914;42.668;23.346;2022-07-29T14:47:47;94443.25;;;30.41;40.67
5777;BME280;2914;42.668;23.346;2022-07-29T14:50:18;94444.88;;;30.39;41.06
5777;BME280;2914;42.668;23.346;2022-07-29T14:52:47;94451.13;;;30.37;41.11
5777;BME280;2914;42.668;23.346;2022-07-29T14:57:53;94447.63;;;30.47;40.49
5777;BME280;2914;42.668;23.346;2022-07-29T15:00:23;94450.86;;;30.41;40.62